Airfield :
LOGIN :

Register | Disclaimer

   EN    FR    IT 

 










Legend :    VFR   Marginal VFR   IFR   Intensive IFR   Very Intensive IFR
Visi :
Ceiling :
>= 8 km
>= 3000ft
5 to 8 km
1000 to 3000 ft
1500m to 5 km
500 to 1000 ft
800 to 1500m
200 to 500 ft
< 800m
< 200 ft
Symbols :   Thunderstorms  Fog  Heavy snow  Heavy precipitations  Wind > 20 kt
SIGMETs :     Misc.  Thunderstorms  Icing  Turbulence  Mountain Waves  Volcanic Ashes







- Airport Elevation : 53 ft
- IATA code : HAM


EDDH - Hamburg

CURRENT METAR :
  • 221220Z 35003KT 310V060 9999 SCT014 BKN031 02/M02 Q1027 TEMPO BKN014

EXPIRED METARs :
  • 221150Z VRB02KT 9999 SCT015 BKN031 02/M02 Q1027 TEMPO BKN014
  • 221120Z VRB01KT 9999 FEW016 BKN031 02/M02 Q1027 R88/CLRD// NOSIG
  • 221050Z VRB02KT 9999 FEW012 BKN030 02/M01 Q1027 R88/D NOSIG
  • 221020Z VRB01KT 9000 FEW012 BKN030 01/M01 Q1027 R88/D NOSIG
  • 220950Z VRB01KT 8000 -SN FEW012 BKN031 01/M02 Q1027 R05/520295 R15/520295 NOSIG
  • 220920Z VRB02KT 7000 -SN BKN031 00/M01 Q1027 R05/520295 R15/520295 NOSIG

TAF COR TAF EDDH
Valid from the 22 at 12:00 until the 23 at 18:00 UTC


221109Z 2212/2318 06005KT 9999 FEW025
PROB40
TEMPO 2213/2218 BKN011
BECMG 2307/2309 08010KT
No reported NOTAMs for that airfield.



MET'MAP, your aeronautical weather chart ! - Copyright ORBIFLY December 2007 - Disclaimer

ORBIFLY MET'MAP TEAM :

Programming & Development : Alexandra Zaïnal
Concept & Development : Baudouin d'Aumeries
Co-Development & Prog : Marc-Olivier Méhu
Technical & hardware support : Manuel Goepfert

Contact : metmap@orbifly.com




SOURCES & CREDITS :

   NOAA